Terminal Aerodrome Forecast
Issued by NWS Northern Indiana

Home | Current Version | Previous Version | Graphics & Text | Print | Product List | Glossary On
Versions: 1 2 3 4 5 6 7 8 9 10 11 12 13 14 15 16 17
000
FTUS43 KIWX 241100
TAFFWA
TAF
KFWA 241120Z 2412/2512 23003KT P6SM VCSH SCT025 BKN040
     FM241400 23007KT P6SM BKN030
     FM242000 22006KT P6SM SCT030 BKN250=

USA.gov is the U.S. government's official web portal to all federal, state and local government web resources and services.